createdAt,value
2019-04-16T00:00:51.105Z,0
2019-04-16T00:01:51.160Z,0
2019-04-16T00:02:52.170Z,0
2019-04-16T00:03:53.620Z,0
2019-04-16T00:04:53.413Z,0
2019-04-16T00:05:51.405Z,0
2019-04-16T00:06:52.441Z,0
2019-04-16T00:07:51.494Z,0
2019-04-16T00:08:51.582Z,0
2019-04-16T00:09:51.652Z,0
2019-04-16T00:10:51.732Z,0
2019-04-16T00:11:51.782Z,0
2019-04-16T00:12:51.871Z,0
2019-04-16T00:13:51.955Z,0
2019-04-16T00:14:53.032Z,0
2019-04-16T00:15:52.288Z,0
2019-04-16T00:16:52.186Z,0
2019-04-16T00:17:52.264Z,0
2019-04-16T00:18:57.494Z,0
2019-04-16T00:19:53.339Z,0
2019-04-16T00:20:53.479Z,0
2019-04-16T00:21:52.553Z,0
2019-04-16T00:22:52.634Z,0
2019-04-16T00:23:53.682Z,0
2019-04-16T00:24:52.752Z,0
2019-04-16T00:25:55.303Z,0
2019-04-16T00:26:57.618Z,0
2019-04-16T00:27:52.984Z,0
2019-04-16T00:28:53.006Z,0
2019-04-16T00:29:54.042Z,0
2019-04-16T00:30:54.094Z,0
2019-04-16T00:31:54.199Z,0
2019-04-16T00:32:53.280Z,0
2019-04-16T00:33:53.330Z,0
2019-04-16T00:34:53.384Z,0
2019-04-16T00:35:53.448Z,0
2019-04-16T00:36:53.591Z,0
2019-04-16T00:37:53.643Z,0
2019-04-16T00:38:54.838Z,0
2019-04-16T00:39:55.842Z,0
2019-04-16T00:40:53.791Z,0
2019-04-16T00:41:53.892Z,0
2019-04-16T00:42:53.972Z,0
2019-04-16T00:43:54.047Z,0
2019-04-16T00:44:54.111Z,0
2019-04-16T00:45:54.186Z,0
2019-04-16T00:46:54.305Z,0
2019-04-16T00:47:54.365Z,0
2019-04-16T00:48:54.431Z,0
2019-04-16T00:49:57.369Z,0
2019-04-16T00:50:54.544Z,0
2019-04-16T00:51:54.658Z,0
2019-04-16T00:52:55.931Z,0
2019-04-16T00:53:55.793Z,0
2019-04-16T00:54:54.842Z,0
2019-04-16T00:55:54.891Z,0
2019-04-16T00:56:54.984Z,0
2019-04-16T00:57:55.062Z,0
2019-04-16T00:58:55.121Z,0
2019-04-16T00:59:56.492Z,0
2019-04-16T01:00:55.222Z,0
2019-04-16T01:01:55.309Z,0
2019-04-16T01:02:55.381Z,0
2019-04-16T01:03:55.453Z,0
2019-04-16T01:04:55.515Z,0
2019-04-16T01:05:55.586Z,0
2019-04-16T01:06:56.698Z,0
2019-04-16T01:07:55.765Z,0
2019-04-16T01:08:55.821Z,0
2019-04-16T01:09:55.888Z,0
2019-04-16T01:10:55.939Z,0
2019-04-16T01:11:56.011Z,0
2019-04-16T01:12:56.171Z,0
2019-04-16T01:13:56.304Z,0
2019-04-16T01:14:58.654Z,0
2019-04-16T01:15:56.339Z,0
2019-04-16T01:16:56.370Z,0
2019-04-16T01:17:56.488Z,0
2019-04-16T01:18:57.529Z,0
2019-04-16T01:19:57.613Z,0
2019-04-16T01:20:56.663Z,0
2019-04-16T01:21:56.721Z,0
2019-04-16T01:22:57.032Z,0
2019-04-16T01:23:57.096Z,0
2019-04-16T01:24:57.147Z,0
2019-04-16T01:25:57.209Z,0
2019-04-16T01:26:58.026Z,0
2019-04-16T01:28:00.599Z,0
2019-04-16T01:28:57.493Z,0
2019-04-16T01:29:57.571Z,0
2019-04-16T01:30:58.401Z,0
2019-04-16T01:31:58.409Z,0
2019-04-16T01:32:58.827Z,0
2019-04-16T01:33:57.579Z,0
2019-04-16T01:34:57.752Z,0
2019-04-16T01:35:57.746Z,0
2019-04-16T01:36:57.845Z,0
2019-04-16T01:37:57.961Z,0
2019-04-16T01:39:14.044Z,0
2019-04-16T01:39:58.942Z,0
2019-04-16T01:40:58.020Z,0
2019-04-16T01:41:58.076Z,0
2019-04-16T01:42:58.137Z,0
2019-04-16T01:43:58.465Z,0
2019-04-16T01:44:59.612Z,0
2019-04-16T01:46:01.243Z,0
2019-04-16T01:46:58.365Z,0
2019-04-16T01:47:58.411Z,0
2019-04-16T01:48:59.500Z,0
2019-04-16T01:49:59.545Z,0
2019-04-16T01:50:59.593Z,0
2019-04-16T01:51:58.656Z,0
2019-04-16T01:52:58.710Z,0
2019-04-16T01:53:58.899Z,0
2019-04-16T01:54:58.784Z,0
2019-04-16T01:55:58.863Z,0
2019-04-16T01:56:59.710Z,0
2019-04-16T01:57:59.421Z,0
2019-04-16T01:58:59.015Z,0
2019-04-16T01:59:59.056Z,0
2019-04-16T02:01:00.088Z,0
2019-04-16T02:02:00.126Z,0
2019-04-16T02:02:59.196Z,0
2019-04-16T02:03:59.294Z,0
2019-04-16T02:04:59.350Z,0
2019-04-16T02:05:59.403Z,0
2019-04-16T02:07:00.449Z,0
2019-04-16T02:08:00.199Z,0
2019-04-16T02:09:02.731Z,0
2019-04-16T02:10:00.737Z,0
2019-04-16T02:10:59.657Z,0
2019-04-16T02:12:00.693Z,0
2019-04-16T02:13:00.737Z,0
2019-04-16T02:13:59.817Z,0
2019-04-16T02:14:59.869Z,0
2019-04-16T02:15:59.937Z,0
2019-04-16T02:17:00.022Z,0
2019-04-16T02:18:00.282Z,0
2019-04-16T02:19:01.081Z,0
2019-04-16T02:20:01.597Z,0
2019-04-16T02:21:00.240Z,0
2019-04-16T02:22:01.287Z,0
2019-04-16T02:23:01.337Z,0
2019-04-16T02:24:00.440Z,0
2019-04-16T02:25:00.499Z,0
2019-04-16T02:26:00.562Z,0
2019-04-16T02:27:00.617Z,0
2019-04-16T02:28:00.701Z,0
2019-04-16T02:29:00.782Z,0
2019-04-16T02:30:02.291Z,0
2019-04-16T02:31:00.922Z,0
2019-04-16T02:32:02.017Z,0
2019-04-16T02:33:01.025Z,0
2019-04-16T02:34:01.107Z,0
2019-04-16T02:35:01.171Z,0
2019-04-16T02:36:01.226Z,0
2019-04-16T02:37:03.124Z,0
2019-04-16T02:38:01.328Z,0
2019-04-16T02:39:02.415Z,0
2019-04-16T02:40:01.457Z,0
2019-04-16T02:41:02.508Z,0
2019-04-16T02:42:01.567Z,0
2019-04-16T02:43:05.757Z,0
2019-04-16T02:44:01.671Z,0
2019-04-16T02:45:02.718Z,0
2019-04-16T02:46:01.754Z,0
2019-04-16T02:47:06.033Z,0
2019-04-16T02:48:01.873Z,0
2019-04-16T02:49:02.933Z,0
2019-04-16T02:50:02.011Z,0
2019-04-16T02:51:06.867Z,0
2019-04-16T02:52:02.114Z,0
2019-04-16T02:53:03.146Z,0
2019-04-16T02:54:02.188Z,0
2019-04-16T02:55:06.914Z,0
2019-04-16T02:56:02.290Z,0
2019-04-16T02:57:03.340Z,0
2019-04-16T02:58:02.554Z,0
2019-04-16T02:59:09.121Z,0
2019-04-16T03:00:03.470Z,0
2019-04-16T03:01:02.528Z,0
2019-04-16T03:02:02.597Z,0
2019-04-16T03:03:02.657Z,0
2019-04-16T03:04:02.721Z,0
2019-04-16T03:05:02.838Z,0
2019-04-16T03:06:02.871Z,0
2019-04-16T03:07:04.196Z,0
2019-04-16T03:08:04.590Z,0
2019-04-16T03:09:05.336Z,0
2019-04-16T03:10:03.106Z,0
2019-04-16T03:11:04.128Z,0
2019-04-16T03:12:04.192Z,0
2019-04-16T03:13:03.340Z,0
2019-04-16T03:14:03.301Z,0
2019-04-16T03:15:03.364Z,0
2019-04-16T03:16:05.971Z,0
2019-04-16T03:17:03.557Z,0
2019-04-16T03:18:03.565Z,0
2019-04-16T03:19:04.608Z,0
2019-04-16T03:20:03.698Z,0
2019-04-16T03:21:03.781Z,0
2019-04-16T03:22:03.843Z,0
2019-04-16T03:23:05.724Z,0
2019-04-16T03:24:07.934Z,0
2019-04-16T03:25:04.030Z,0
2019-04-16T03:26:05.083Z,0
2019-04-16T03:27:05.526Z,0
2019-04-16T03:28:04.216Z,0
2019-04-16T03:29:04.260Z,0
2019-04-16T03:30:05.856Z,0
2019-04-16T03:31:07.647Z,0
2019-04-16T03:32:05.398Z,0
2019-04-16T03:33:12.260Z,0
2019-04-16T03:34:05.436Z,0
2019-04-16T03:35:04.501Z,0
2019-04-16T03:36:04.574Z,0
2019-04-16T03:37:04.625Z,0
2019-04-16T03:38:06.163Z,0
2019-04-16T03:39:04.719Z,0
2019-04-16T03:40:15.697Z,0
2019-04-16T03:41:05.767Z,0
2019-04-16T03:42:04.822Z,0
2019-04-16T03:43:04.906Z,0
2019-04-16T03:44:05.126Z,0
2019-04-16T03:45:07.775Z,0
2019-04-16T03:46:05.088Z,0
2019-04-16T03:47:05.159Z,0
2019-04-16T03:48:06.207Z,0
2019-04-16T03:49:05.265Z,0
2019-04-16T03:50:05.330Z,0
2019-04-16T03:51:05.412Z,0
2019-04-16T03:52:08.352Z,0
2019-04-16T03:53:05.522Z,0
2019-04-16T03:54:06.582Z,1
2019-04-16T03:55:05.773Z,1
2019-04-16T03:56:05.744Z,1
2019-04-16T03:57:05.795Z,0
2019-04-16T03:58:07.161Z,1
2019-04-16T03:59:10.451Z,1
2019-04-16T04:00:11.006Z,1
2019-04-16T04:01:06.012Z,1
2019-04-16T04:02:07.060Z,1
2019-04-16T04:03:07.097Z,1
2019-04-16T04:04:06.272Z,1
2019-04-16T04:05:07.034Z,2
2019-04-16T04:06:07.848Z,3
2019-04-16T04:07:08.688Z,3
2019-04-16T04:08:06.406Z,4
2019-04-16T04:09:07.454Z,4
2019-04-16T04:10:07.492Z,5
2019-04-16T04:11:10.141Z,6
2019-04-16T04:12:06.634Z,8
2019-04-16T04:13:06.674Z,8
2019-04-16T04:14:07.723Z,11
2019-04-16T04:15:06.954Z,13
2019-04-16T04:16:06.925Z,15
2019-04-16T04:17:07.439Z,17
2019-04-16T04:18:07.603Z,20
2019-04-16T04:19:07.086Z,23
2019-04-16T04:20:07.146Z,28
2019-04-16T04:21:08.265Z,31
2019-04-16T04:22:08.334Z,36
2019-04-16T04:23:07.381Z,41
2019-04-16T04:24:07.450Z,47
2019-04-16T04:25:07.509Z,53
2019-04-16T04:26:08.594Z,61
2019-04-16T04:27:12.779Z,70
2019-04-16T04:28:08.697Z,78
2019-04-16T04:29:08.751Z,86
2019-04-16T04:30:07.988Z,99
2019-04-16T04:31:07.885Z,107
2019-04-16T04:32:07.956Z,119
2019-04-16T04:33:09.813Z,132
2019-04-16T04:34:09.934Z,144
2019-04-16T04:35:09.188Z,160
2019-04-16T04:36:09.164Z,173
2019-04-16T04:37:09.269Z,188
2019-04-16T04:38:08.380Z,205
2019-04-16T04:39:09.306Z,222
2019-04-16T04:40:08.551Z,238
2019-04-16T04:41:08.636Z,264
2019-04-16T04:42:09.753Z,283
2019-04-16T04:43:10.061Z,300
2019-04-16T04:44:08.929Z,322
2019-04-16T04:45:10.124Z,342
2019-04-16T04:46:12.166Z,366
2019-04-16T04:47:09.346Z,392
2019-04-16T04:48:11.370Z,411
2019-04-16T04:49:10.456Z,435
2019-04-16T04:50:09.616Z,471
2019-04-16T04:51:10.598Z,481
2019-04-16T04:52:13.516Z,518
2019-04-16T04:53:09.770Z,535
2019-04-16T04:54:10.920Z,550
2019-04-16T04:55:10.902Z,595
2019-04-16T04:56:09.908Z,610
2019-04-16T04:57:11.094Z,640
2019-04-16T04:58:10.114Z,669
2019-04-16T04:59:10.123Z,687
2019-04-16T05:00:10.098Z,726
2019-04-16T05:01:13.290Z,734
2019-04-16T05:02:13.695Z,755
2019-04-16T05:03:12.345Z,808
2019-04-16T05:04:10.417Z,828
2019-04-16T05:05:11.562Z,828
2019-04-16T05:06:11.716Z,881
2019-04-16T05:07:10.715Z,912
2019-04-16T05:08:10.741Z,945
2019-04-16T05:09:10.750Z,936
2019-04-16T05:10:10.748Z,976
2019-04-16T05:11:12.482Z,997
2019-04-16T05:12:10.748Z,1038
2019-04-16T05:13:11.919Z,1081
2019-04-16T05:14:11.927Z,1084
2019-04-16T05:15:10.976Z,1066
2019-04-16T05:16:10.970Z,1128
2019-04-16T05:17:10.973Z,1173
2019-04-16T05:18:11.046Z,1199
2019-04-16T05:19:13.722Z,1212
2019-04-16T05:20:14.795Z,1225
2019-04-16T05:21:11.140Z,1274
2019-04-16T05:22:11.142Z,1292
2019-04-16T05:23:12.367Z,1309
2019-04-16T05:24:12.361Z,1337
2019-04-16T05:25:11.347Z,1358
2019-04-16T05:26:11.363Z,1363
2019-04-16T05:27:11.337Z,1391
2019-04-16T05:28:12.641Z,1411
2019-04-16T05:29:15.935Z,1466
2019-04-16T05:30:11.370Z,1508
2019-04-16T05:31:12.364Z,1525
2019-04-16T05:32:12.353Z,1534
2019-04-16T05:33:11.727Z,1568
2019-04-16T05:34:11.475Z,1565
2019-04-16T05:35:11.450Z,1552
2019-04-16T05:36:14.121Z,1558
2019-04-16T05:37:12.732Z,1591
2019-04-16T05:38:11.730Z,1641
2019-04-16T05:39:12.750Z,1667
2019-04-16T05:40:12.019Z,1719
2019-04-16T05:41:13.398Z,1732
2019-04-16T05:42:13.076Z,1766
2019-04-16T05:43:13.075Z,1758
2019-04-16T05:44:13.120Z,1754
2019-04-16T05:45:12.083Z,1797
2019-04-16T05:46:12.085Z,1801
2019-04-16T05:47:16.706Z,1827
2019-04-16T05:48:12.236Z,1854
2019-04-16T05:49:13.474Z,1865
2019-04-16T05:50:13.415Z,1901
2019-04-16T05:51:12.617Z,1933
2019-04-16T05:52:12.571Z,1976
2019-04-16T05:53:13.297Z,2020
2019-04-16T05:54:13.280Z,2008
2019-04-16T05:55:16.252Z,1989
2019-04-16T05:56:12.641Z,1977
2019-04-16T05:57:13.650Z,2004
2019-04-16T05:58:13.639Z,2049
2019-04-16T05:59:12.900Z,2081
2019-04-16T06:00:12.761Z,2088
2019-04-16T06:01:13.590Z,2116
2019-04-16T06:02:14.598Z,2132
2019-04-16T06:03:13.082Z,2163
2019-04-16T06:04:14.065Z,2179
2019-04-16T06:05:14.280Z,2195
2019-04-16T06:06:14.280Z,2219
2019-04-16T06:07:13.297Z,2260
2019-04-16T06:08:13.281Z,2289
2019-04-16T06:09:13.624Z,2302
2019-04-16T06:10:16.260Z,2323
2019-04-16T06:11:26.959Z,2333
2019-04-16T06:12:14.519Z,2369
2019-04-16T06:13:13.527Z,2377
2019-04-16T06:14:17.504Z,2401
2019-04-16T06:15:14.831Z,2400
2019-04-16T06:16:13.805Z,2441
2019-04-16T06:17:14.960Z,2459
2019-04-16T06:18:17.543Z,2487
2019-04-16T06:19:14.228Z,2514
2019-04-16T06:20:18.920Z,2529
2019-04-16T06:21:14.151Z,2548
2019-04-16T06:22:15.135Z,2559
2019-04-16T06:23:15.127Z,2596
2019-04-16T06:24:14.391Z,2642
2019-04-16T06:25:14.147Z,2651
2019-04-16T06:26:15.819Z,2650
2019-04-16T06:27:14.305Z,2627
2019-04-16T06:28:14.298Z,2615
2019-04-16T06:29:14.294Z,2630
2019-04-16T06:30:15.325Z,2664
2019-04-16T06:31:14.536Z,2732
2019-04-16T06:32:14.377Z,2774
2019-04-16T06:33:14.618Z,2801
2019-04-16T06:34:14.422Z,2782
2019-04-16T06:35:15.442Z,2791
2019-04-16T06:36:14.435Z,2805
2019-04-16T06:37:14.484Z,2832
2019-04-16T06:38:15.467Z,2883
2019-04-16T06:39:14.492Z,2898
2019-04-16T06:40:14.573Z,2918
2019-04-16T06:41:14.558Z,2933
2019-04-16T06:42:14.588Z,2912
2019-04-16T06:43:14.575Z,2923
2019-04-16T06:44:15.565Z,2972
2019-04-16T06:45:14.717Z,3017
2019-04-16T06:46:14.776Z,3057
2019-04-16T06:47:14.760Z,3065
2019-04-16T06:48:14.907Z,3087
2019-04-16T06:49:17.395Z,3108
2019-04-16T06:50:15.088Z,3155
2019-04-16T06:51:16.365Z,3187
2019-04-16T06:52:16.335Z,3179
2019-04-16T06:53:15.494Z,3180
2019-04-16T06:54:16.651Z,3176
2019-04-16T06:55:16.637Z,3215
2019-04-16T06:56:15.688Z,3238
2019-04-16T06:57:15.688Z,3287
2019-04-16T06:58:18.077Z,3293
2019-04-16T06:59:17.525Z,3324
2019-04-16T07:00:16.770Z,3338
2019-04-16T07:01:15.782Z,3409
2019-04-16T07:02:15.808Z,3480
2019-04-16T07:03:15.814Z,3505
2019-04-16T07:04:16.963Z,3501
2019-04-16T07:05:17.127Z,3521
2019-04-16T07:06:16.154Z,3519
2019-04-16T07:07:16.230Z,3564
2019-04-16T07:08:18.118Z,3615
2019-04-16T07:09:17.377Z,3621
2019-04-16T07:10:17.366Z,3624
2019-04-16T07:11:17.362Z,3639
2019-04-16T07:12:16.412Z,3641
2019-04-16T07:13:16.446Z,3678
2019-04-16T07:14:16.840Z,3684
2019-04-16T07:15:22.033Z,3722
2019-04-16T07:16:17.748Z,3720
2019-04-16T07:17:18.780Z,3753
2019-04-16T07:18:16.982Z,3771
2019-04-16T07:19:17.705Z,3807
2019-04-16T07:20:17.007Z,3836
2019-04-16T07:21:17.445Z,3933
2019-04-16T07:22:20.671Z,3997
2019-04-16T07:23:17.043Z,3974
2019-04-16T07:24:17.098Z,3935
2019-04-16T07:25:18.585Z,3960
2019-04-16T07:26:18.432Z,3931
2019-04-16T07:27:19.927Z,3920
2019-04-16T07:28:18.470Z,3977
2019-04-16T07:29:17.475Z,4002
2019-04-16T07:30:20.640Z,4065
2019-04-16T07:32:18.569Z,4112
2019-04-16T07:33:17.617Z,4106
2019-04-16T07:34:17.648Z,4128
2019-04-16T07:34:34.809Z,4121
2019-04-16T07:35:17.804Z,4193
2019-04-16T07:36:18.807Z,4246
2019-04-16T07:37:17.820Z,4312
2019-04-16T07:38:17.878Z,4307
2019-04-16T07:39:28.614Z,4315
2019-04-16T07:40:19.018Z,4367
2019-04-16T07:41:18.006Z,4483
2019-04-16T07:42:21.331Z,4527
2019-04-16T07:43:18.099Z,4534
2019-04-16T07:44:19.121Z,4536
2019-04-16T07:45:18.113Z,4568
2019-04-16T07:46:18.129Z,4595
2019-04-16T07:47:19.988Z,4684
2019-04-16T07:48:22.496Z,4700
2019-04-16T07:49:18.171Z,4704
2019-04-16T07:50:18.182Z,4736
2019-04-16T07:51:18.201Z,4759
2019-04-16T07:52:18.204Z,4826
2019-04-16T07:53:18.226Z,4874
2019-04-16T07:54:18.744Z,4924
2019-04-16T07:55:18.255Z,5008
2019-04-16T07:56:18.250Z,5045
2019-04-16T07:57:19.260Z,5155
2019-04-16T07:58:18.263Z,5270
2019-04-16T07:59:18.314Z,5377
2019-04-16T08:00:18.347Z,5440
2019-04-16T08:01:18.340Z,5587
2019-04-16T08:02:21.351Z,5747
2019-04-16T08:03:18.361Z,5826
2019-04-16T08:04:25.611Z,5925
2019-04-16T08:05:19.508Z,6091
2019-04-16T08:06:18.504Z,6182
2019-04-16T08:07:20.432Z,6275
2019-04-16T08:08:18.518Z,6262
2019-04-16T08:09:18.533Z,6342
2019-04-16T08:10:19.669Z,7070
2019-04-16T08:11:18.742Z,20816
2019-04-16T08:12:29.766Z,41600
2019-04-16T08:13:19.895Z,41536
2019-04-16T08:14:20.007Z,30664
2019-04-16T08:15:19.045Z,27032
2019-04-16T08:16:19.149Z,28640
2019-04-16T08:17:19.080Z,37680
2019-04-16T08:18:19.088Z,38720
2019-04-16T08:19:19.151Z,33232
2019-04-16T08:20:21.168Z,24400
2019-04-16T08:21:22.244Z,23520
2019-04-16T08:22:19.319Z,30480
2019-04-16T08:23:19.612Z,28656
2019-04-16T08:24:24.285Z,30288
2019-04-16T08:25:19.394Z,28160
2019-04-16T08:26:20.406Z,31688
2019-04-16T08:27:19.558Z,44856
2019-04-16T08:28:19.411Z,44720
2019-04-16T08:29:19.493Z,28048
2019-04-16T08:30:19.498Z,18536
2019-04-16T08:31:19.512Z,13904
2019-04-16T08:32:19.533Z,25936
2019-04-16T08:33:19.552Z,25552
2019-04-16T08:34:20.748Z,22840
2019-04-16T08:35:19.768Z,32016
2019-04-16T08:36:19.773Z,35192
2019-04-16T08:37:19.771Z,27088
2019-04-16T08:38:19.837Z,33192
2019-04-16T08:39:19.979Z,34392
2019-04-16T08:40:20.027Z,32008
2019-04-16T08:41:21.432Z,33696
2019-04-16T08:42:24.123Z,40848
2019-04-16T08:43:21.014Z,46224
2019-04-16T08:44:21.054Z,39224
2019-04-16T08:45:20.654Z,33088
2019-04-16T08:46:20.154Z,29544
2019-04-16T08:47:20.177Z,28352
2019-04-16T08:48:20.177Z,28312
2019-04-16T08:49:22.344Z,23968
2019-04-16T08:50:20.205Z,21000
2019-04-16T08:51:29.990Z,17856
2019-04-16T08:52:21.327Z,25960
2019-04-16T08:53:20.363Z,16720
2019-04-16T08:54:20.376Z,16136
2019-04-16T08:55:23.481Z,14395
2019-04-16T08:56:20.428Z,26912
2019-04-16T08:57:20.434Z,21792
2019-04-16T08:58:21.442Z,17832
2019-04-16T08:59:20.479Z,23104
2019-04-16T09:00:20.530Z,29944
2019-04-16T09:01:23.490Z,36208
2019-04-16T09:02:23.454Z,26904
2019-04-16T09:03:20.753Z,28816
2019-04-16T09:04:21.782Z,31896
2019-04-16T09:05:21.852Z,41856
2019-04-16T09:06:20.860Z,46016
2019-04-16T09:07:20.877Z,34848
2019-04-16T09:08:22.034Z,18752
2019-04-16T09:09:24.269Z,13712
2019-04-16T09:10:23.683Z,28160
2019-04-16T09:11:23.744Z,37384
2019-04-16T09:12:22.002Z,33504
2019-04-16T09:13:20.995Z,29016
2019-04-16T09:14:25.338Z,27008
2019-04-16T09:15:21.115Z,19968
2019-04-16T09:16:21.166Z,15730
2019-04-16T09:17:21.178Z,14062
2019-04-16T09:18:21.341Z,23568
2019-04-16T09:19:21.451Z,34200
2019-04-16T09:20:23.207Z,30384
2019-04-16T09:21:21.587Z,21888
2019-04-16T09:22:21.623Z,21008
2019-04-16T09:23:22.730Z,38224
2019-04-16T09:24:21.678Z,54688
2019-04-16T09:25:21.815Z,50952
2019-04-16T09:26:23.495Z,38688
2019-04-16T09:27:21.897Z,30952
2019-04-16T09:28:25.510Z,22848
2019-04-16T09:29:22.069Z,27296
2019-04-16T09:30:22.078Z,58072
2019-04-16T09:31:23.142Z,65535
2019-04-16T09:32:24.528Z,55464
2019-04-16T09:33:22.454Z,47088
2019-04-16T09:34:23.572Z,31368
2019-04-16T09:35:22.557Z,33024
2019-04-16T09:36:22.576Z,24592
2019-04-16T09:37:25.385Z,17808
2019-04-16T09:38:23.717Z,17112
2019-04-16T09:39:22.833Z,18632
2019-04-16T09:40:22.841Z,16544
2019-04-16T09:41:23.052Z,11277
2019-04-16T09:42:23.062Z,15818
2019-04-16T09:43:23.067Z,35680
2019-04-16T09:44:23.318Z,37656
2019-04-16T09:45:24.803Z,18056
2019-04-16T09:46:48.718Z,15168
2019-04-16T09:47:24.440Z,16072
2019-04-16T09:48:23.569Z,29680
2019-04-16T09:49:24.688Z,35864
2019-04-16T09:50:24.795Z,26104
2019-04-16T09:51:25.676Z,27296
2019-04-16T09:52:24.197Z,31640
2019-04-16T09:53:33.361Z,15096
2019-04-16T09:54:25.131Z,18152
2019-04-16T09:55:24.292Z,26368
2019-04-16T09:56:28.240Z,18866
2019-04-16T09:57:24.764Z,26976
2019-04-16T09:58:24.400Z,30736
2019-04-16T09:59:25.630Z,38264
2019-04-16T10:00:24.697Z,32496
2019-04-16T10:01:24.730Z,32584
2019-04-16T10:02:24.742Z,46368
2019-04-16T10:03:24.751Z,41296
2019-04-16T10:04:24.904Z,31408
2019-04-16T10:05:26.442Z,21040
2019-04-16T10:06:25.047Z,10476
2019-04-16T10:07:25.117Z,8689
2019-04-16T10:08:25.135Z,10823
2019-04-16T10:09:25.211Z,11241
2019-04-16T10:10:27.828Z,12360
2019-04-16T10:11:25.443Z,13471
2019-04-16T10:12:26.644Z,14850
2019-04-16T10:13:31.710Z,17208
2019-04-16T10:14:26.755Z,26976
2019-04-16T10:15:25.793Z,23728
2019-04-16T10:16:25.758Z,27232
2019-04-16T10:17:26.011Z,24520
2019-04-16T10:18:25.936Z,14989
2019-04-16T10:19:27.061Z,19605
2019-04-16T10:20:26.178Z,36896
2019-04-16T10:21:28.510Z,34080
2019-04-16T10:22:26.356Z,24520
2019-04-16T10:23:26.351Z,35776
2019-04-16T10:24:26.374Z,57320
2019-04-16T10:25:26.501Z,65535
2019-04-16T10:26:26.527Z,61064
2019-04-16T10:27:31.173Z,52720
2019-04-16T10:28:26.591Z,36264
2019-04-16T10:29:27.677Z,23888
2019-04-16T10:30:29.857Z,39968
2019-04-16T10:31:26.885Z,52752
2019-04-16T10:32:27.049Z,56968
2019-04-16T10:33:27.003Z,50704
2019-04-16T10:34:27.127Z,42112
2019-04-16T10:35:28.260Z,23752
2019-04-16T10:36:27.382Z,23344
2019-04-16T10:37:28.486Z,34224
2019-04-16T10:38:27.494Z,48040
2019-04-16T10:39:27.684Z,55912
2019-04-16T10:40:27.749Z,36424
2019-04-16T10:41:27.853Z,31168
2019-04-16T10:42:27.942Z,38424
2019-04-16T10:43:27.967Z,30392
2019-04-16T10:44:29.087Z,27552
2019-04-16T10:45:28.170Z,36904
2019-04-16T10:46:28.174Z,50624
2019-04-16T10:47:28.270Z,57040
2019-04-16T10:48:28.330Z,44928
2019-04-16T10:49:28.308Z,28352
2019-04-16T10:50:28.337Z,34392
2019-04-16T10:51:28.469Z,29592
2019-04-16T10:52:28.558Z,51880
2019-04-16T10:53:28.721Z,48696
2019-04-16T10:54:29.895Z,38392
2019-04-16T10:55:28.976Z,52656
2019-04-16T10:56:29.160Z,57320
2019-04-16T10:57:29.191Z,65535
2019-04-16T10:58:30.355Z,56312
2019-04-16T10:59:29.457Z,48632
2019-04-16T11:00:29.644Z,33912
2019-04-16T11:01:32.898Z,37104
2019-04-16T11:02:29.605Z,36304
2019-04-16T11:03:34.368Z,54584
2019-04-16T11:04:29.871Z,40776
2019-04-16T11:05:31.113Z,52112
2019-04-16T11:06:30.079Z,63936
2019-04-16T11:07:30.146Z,65535
2019-04-16T11:08:30.286Z,65535
2019-04-16T11:09:30.412Z,65535
2019-04-16T11:10:30.617Z,65535
2019-04-16T11:11:30.650Z,65535
2019-04-16T11:12:30.749Z,57192
2019-04-16T11:13:30.888Z,63256
2019-04-16T11:14:30.885Z,65535
2019-04-16T11:15:30.944Z,33136
2019-04-16T11:16:31.187Z,51504
2019-04-16T11:17:31.069Z,56616
2019-04-16T11:18:32.177Z,58744
2019-04-16T11:19:31.293Z,52480
2019-04-16T11:20:31.450Z,65535
2019-04-16T11:21:31.585Z,65535
2019-04-16T11:22:31.670Z,65535
2019-04-16T11:23:31.844Z,65535
2019-04-16T11:24:31.963Z,65535
2019-04-16T11:25:32.064Z,65535
2019-04-16T11:26:32.184Z,65535
2019-04-16T11:27:32.300Z,65535
2019-04-16T11:28:32.461Z,65535
2019-04-16T11:29:32.718Z,65535
2019-04-16T11:30:33.722Z,65535
2019-04-16T11:31:32.833Z,55728
2019-04-16T11:32:32.950Z,65535
2019-04-16T11:33:33.129Z,65535
2019-04-16T11:34:33.178Z,65535
2019-04-16T11:35:33.285Z,65535
2019-04-16T11:36:33.396Z,65535
2019-04-16T11:37:36.201Z,60680
2019-04-16T11:38:34.634Z,65535
2019-04-16T11:39:33.657Z,65535
2019-04-16T11:40:33.621Z,65535
2019-04-16T11:41:33.756Z,65535
2019-04-16T11:42:33.907Z,65535
2019-04-16T11:43:34.017Z,65535
2019-04-16T11:44:34.218Z,65535
2019-04-16T11:45:34.146Z,65535
2019-04-16T11:46:34.327Z,65535
2019-04-16T11:47:34.888Z,65535
2019-04-16T11:48:37.360Z,65535
2019-04-16T11:49:34.605Z,65535
2019-04-16T11:50:36.081Z,65535
2019-04-16T11:51:34.866Z,65535
2019-04-16T11:52:34.978Z,65535
2019-04-16T11:53:35.046Z,65535
2019-04-16T11:54:35.269Z,65535
2019-04-16T11:55:36.408Z,65535
2019-04-16T11:56:35.509Z,65535
2019-04-16T11:57:35.631Z,65535
2019-04-16T11:58:35.744Z,65535
2019-04-16T11:59:38.188Z,65535
2019-04-16T12:00:36.042Z,65535
2019-04-16T12:01:36.030Z,65535
2019-04-16T12:02:38.733Z,65535
2019-04-16T12:03:36.717Z,65535
2019-04-16T12:04:36.386Z,65535
2019-04-16T12:05:36.530Z,65535
2019-04-16T12:06:36.686Z,65535
2019-04-16T12:07:36.772Z,65535
2019-04-16T12:08:37.932Z,54624
2019-04-16T12:09:37.035Z,50424
2019-04-16T12:10:37.197Z,62992
2019-04-16T12:11:37.186Z,65535
2019-04-16T12:12:37.299Z,65535
2019-04-16T12:13:37.414Z,65535
2019-04-16T12:14:41.828Z,65535
2019-04-16T12:15:37.773Z,65535
2019-04-16T12:16:37.878Z,65535
2019-04-16T12:17:37.984Z,65535
2019-04-16T12:18:38.111Z,65535
2019-04-16T12:19:38.205Z,65535
2019-04-16T12:20:38.297Z,65535
2019-04-16T12:21:38.589Z,65535
2019-04-16T12:22:38.559Z,65535
2019-04-16T12:23:38.721Z,65535
2019-04-16T12:24:38.819Z,65535
2019-04-16T12:25:38.935Z,65535
2019-04-16T12:26:39.088Z,65535
2019-04-16T12:27:39.194Z,65535
2019-04-16T12:28:43.175Z,65535
2019-04-16T12:29:39.405Z,65535
2019-04-16T12:30:39.577Z,65535
2019-04-16T12:31:39.750Z,65535
2019-04-16T12:32:39.893Z,65535
2019-04-16T12:33:39.851Z,65535
2019-04-16T12:34:40.047Z,65535
2019-04-16T12:35:41.148Z,65535
2019-04-16T12:36:40.270Z,65535
2019-04-16T12:37:40.423Z,65535
2019-04-16T12:38:40.548Z,65535
2019-04-16T12:39:40.643Z,65535
2019-04-16T12:40:42.252Z,65535
2019-04-16T12:41:40.922Z,65535
2019-04-16T12:42:42.119Z,65535
2019-04-16T12:43:40.975Z,65535
2019-04-16T12:44:45.454Z,65535
2019-04-16T12:45:41.174Z,65535
2019-04-16T12:46:42.322Z,65535
2019-04-16T12:47:41.466Z,65535
2019-04-16T12:48:41.641Z,65535
2019-04-16T12:49:41.763Z,65535
2019-04-16T12:50:41.887Z,65535
2019-04-16T12:51:42.978Z,65535
2019-04-16T12:52:42.106Z,65535
2019-04-16T12:53:43.236Z,65535
2019-04-16T12:54:43.297Z,65535
2019-04-16T12:55:42.378Z,65535
2019-04-16T12:56:42.589Z,65535
2019-04-16T12:57:46.824Z,65535
2019-04-16T12:58:42.610Z,65535
2019-04-16T12:59:42.722Z,65535
2019-04-16T13:00:43.807Z,65535
2019-04-16T13:01:42.899Z,65535
2019-04-16T13:02:44.817Z,65535
2019-04-16T13:03:46.294Z,65535
2019-04-16T13:04:45.640Z,65535
2019-04-16T13:05:44.614Z,65535
2019-04-16T13:06:44.489Z,65535
2019-04-16T13:07:43.637Z,65535
2019-04-16T13:08:43.746Z,61736
2019-04-16T13:09:44.851Z,49800
2019-04-16T13:10:43.959Z,60864
2019-04-16T13:11:44.051Z,65535
2019-04-16T13:12:44.214Z,65535
2019-04-16T13:13:44.165Z,65535
2019-04-16T13:14:59.488Z,64440
2019-04-16T13:15:45.400Z,55048
2019-04-16T13:16:44.503Z,56984
2019-04-16T13:17:44.670Z,60528
2019-04-16T13:18:44.800Z,62368
2019-04-16T13:19:44.895Z,65535
2019-04-16T13:20:45.035Z,65535
2019-04-16T13:21:46.166Z,65535
2019-04-16T13:22:45.297Z,65535
2019-04-16T13:23:45.439Z,65535
2019-04-16T13:24:45.398Z,65535
2019-04-16T13:25:45.513Z,65535
2019-04-16T13:26:45.626Z,65535
2019-04-16T13:27:47.730Z,65535
2019-04-16T13:28:45.897Z,65535
2019-04-16T13:29:46.978Z,60224
2019-04-16T13:30:46.085Z,39960
2019-04-16T13:31:46.206Z,45832
2019-04-16T13:32:46.346Z,58304
2019-04-16T13:33:46.870Z,64480
2019-04-16T13:34:46.586Z,59856
2019-04-16T13:35:47.682Z,65232
2019-04-16T13:36:46.793Z,65535